| Date | Time | Temp. (oF) | Dew Point (oF) | Rel. Hum. (%) | Press. (in.) | Wind Dir. | Wind Speed (mph) | Hourly Rainfall (in.) |
|
|---|---|---|---|---|---|---|---|---|---|
| 1 | 06/22 | 00:00 | 72 | 66 | 84 | 30.06 | ESE | 0 | 0.00 |
| 2 | 06/21 | 23:00 | 74 | 67 | 79 | 30.06 | E | 0 | 0.00 |
| 3 | 06/21 | 22:00 | 77 | 67 | 72 | 30.05 | SW | 2 | 0.00 |
| 4 | 06/21 | 21:00 | 80 | 65 | 62 | 30.04 | SW | 0 | 0.00 |
| 5 | 06/21 | 20:00 | 83 | 65 | 55 | 30.02 | W | 1 | 0.00 |
| 6 | 06/21 | 19:00 | 86 | 65 | 50 | 30.01 | WNW | 5 | 0.00 |
| 7 | 06/21 | 18:00 | 87 | 64 | 48 | 30.00 | W | 2 | 0.00 |
| 8 | 06/21 | 17:00 | 87 | 63 | 46 | 30.01 | WNW | 8 | 0.00 |
| 9 | 06/21 | 16:00 | 87 | 64 | 48 | 30.01 | NNW | 2 | 0.00 |
| 10 | 06/21 | 15:00 | 88 | 65 | 47 | 30.02 | NNE | 4 | 0.00 |
| 11 | 06/21 | 14:00 | 86 | 64 | 49 | 30.02 | WNW | 4 | 0.00 |
| 12 | 06/21 | 13:00 | 85 | 64 | 50 | 30.03 | WNW | 3 | 0.00 |
| 13 | 06/21 | 12:00 | 83 | 62 | 51 | 30.04 | WNW | 2 | 0.00 |
| 14 | 06/21 | 11:00 | 83 | 65 | 56 | 30.04 | NNW | 4 | 0.00 |
| 15 | 06/21 | 10:00 | 81 | 64 | 58 | 30.05 | NNW | 4 | 0.00 |
| 16 | 06/21 | 09:00 | 78 | 65 | 66 | 30.05 | N | 2 | 0.00 |
| 17 | 06/21 | 08:00 | 74 | 66 | 78 | 30.07 | WNW | 2 | 0.00 |
| 18 | 06/21 | 07:00 | 68 | 66 | 94 | 30.04 | SW | 0 | 0.00 |
| 19 | 06/21 | 06:00 | 67 | 64 | 92 | 30.02 | SW | 0 | 0.00 |
| 20 | 06/21 | 05:00 | 68 | 64 | 90 | 29.98 | SW | 0 | 0.00 |
| 21 | 06/21 | 04:00 | 70 | 64 | 84 | 29.97 | NW | 0 | 0.00 |
| 22 | 06/21 | 03:00 | 73 | 65 | 77 | 29.97 | NW | 0 | 0.00 |
| 23 | 06/21 | 02:00 | 74 | 65 | 76 | 29.96 | NW | 4 | 0.00 |
| 24 | 06/21 | 01:00 | 71 | 65 | 82 | 29.95 | WSW | 0 | 0.00 |